Main page


Airports :

Wittering, England

RAF Wittering

latitude: 52-37N, longitude: 000-28W, elevation: 84 m

Current weather observation

The report was made 44 minutes ago, at 16:50 UTC
Wind 9 kt from the Northeast
Temperature 6°C
Humidity 65%
Pressure 1030 hPa
Visibility 10 km or more

METAR: EGXT 201650Z AUTO 04009KT 9999 FEW040/// BKN045/// 06/M00 Q1030

Time: 17:34 (17:34 UTC)


The report was made 3 hours and 55 minutes ago, at 13:39 UTC
Forecast valid from 20 at 15 UTC to 20 at 18 UTC
Wind 12 kt from the North/Northeast
Visibility 10 km or more
Scattered clouds at a height of 3500 ft

TAF: EGXT 201339Z 2015/2018 02012KT 9999 SCT035

Weather observations and forecasts of more than 4000 airports (METAR and TAF reports).

The available stations are represented by yellow and red dots on the map.

Hover mouse over dot to see the name of the station.

Then click to see weather observations and forecasts.

To change the map : click on the green buttons with a black cross to zoom in, on the green button with a dash to zoom out, or on the green arrows for adjacent maps.